Time;durP1;ratioP1;P1;durP2;ratioP2;P2;SDS_P1;SDS_P2;PMS_P1;PMS_P2;Temp;Humidity;BMP_temperature;BMP_pressure;BME280_temperature;BME280_humidity;BME280_pressure;Samples;Min_cycle;Max_cycle;Signal;HPM_P1;HPM_P2
2022/09/26 00:01:37;;;;;;;3.33;3.03;;;12.30;99.90;;;;;;5068986;28;20403;-75
2022/09/26 00:04:18;;;;;;;4.00;3.70;;;12.20;99.90;;;;;;5069452;28;20483;-75
2022/09/26 00:06:44;;;;;;;3.63;3.25;;;12.20;99.90;;;;;;5067375;28;20400;-75
2022/09/26 00:09:09;;;;;;;3.65;3.35;;;12.20;99.90;;;;;;5072377;28;20406;-75
2022/09/26 00:11:35;;;;;;;3.55;3.25;;;12.20;99.90;;;;;;5089861;28;20911;-74
2022/09/26 00:14:05;;;;;;;3.23;3.03;;;12.30;99.90;;;;;;5069377;28;20892;-74
2022/09/26 00:16:31;;;;;;;2.65;2.45;;;12.30;99.90;;;;;;5067807;28;20415;-75
2022/09/26 00:18:57;;;;;;;3.13;2.83;;;12.30;99.90;;;;;;5069549;28;20407;-75
2022/09/26 00:21:24;;;;;;;3.10;2.80;;;12.30;99.90;;;;;;5072367;28;20430;-74
2022/09/26 00:23:50;;;;;;;3.30;3.00;;;12.20;99.90;;;;;;5065236;28;20411;-76
2022/09/26 00:26:19;;;;;;;2.80;2.60;;;12.20;99.90;;;;;;5068711;28;20411;-75
2022/09/26 00:28:44;;;;;;;3.90;2.80;;;12.20;99.90;;;;;;5069440;28;20415;-75
2022/09/26 00:31:22;;;;;;;2.70;2.50;;;12.20;99.90;;;;;;5067614;28;20419;-75
2022/09/26 00:33:48;;;;;;;2.67;2.47;;;12.20;99.90;;;;;;5068911;28;20457;-76
2022/09/26 00:36:14;;;;;;;5.57;2.67;;;12.30;99.90;;;;;;5069005;28;20391;-75
2022/09/26 00:38:39;;;;;;;2.90;2.70;;;12.20;99.90;;;;;;5069141;28;20399;-74
2022/09/26 00:41:05;;;;;;;2.90;2.57;;;12.20;99.90;;;;;;5069453;28;20454;-75
2022/09/26 00:43:41;;;;;;;2.97;2.40;;;12.10;99.90;;;;;;5067726;28;20415;-75
2022/09/26 00:46:26;;;;;;;2.95;2.58;;;12.20;99.90;;;;;;5069514;28;20742;-75
2022/09/26 00:49:10;;;;;;;4.50;2.50;;;12.30;99.90;;;;;;5051632;28;20497;-75
2022/09/26 00:51:41;;;;;;;2.78;2.50;;;12.20;99.90;;;;;;5050102;28;20404;-75
2022/09/26 00:54:10;;;;;;;2.50;2.30;;;12.20;99.90;;;;;;5051172;28;20415;-74
2022/09/26 00:56:38;;;;;;;2.50;2.20;;;12.20;99.90;;;;;;5068893;28;20926;-75
2022/09/26 00:59:34;;;;;;;2.60;2.40;;;12.30;99.90;;;;;;5070172;28;20391;-75
2022/09/26 01:02:00;;;;;;;4.10;2.70;;;12.20;99.90;;;;;;5065866;28;20394;-75
2022/09/26 01:04:29;;;;;;;2.63;2.42;;;12.30;99.90;;;;;;5069837;28;20395;-75
2022/09/26 01:06:56;;;;;;;2.90;2.70;;;12.30;99.90;;;;;;5069849;28;20723;-75
2022/09/26 01:09:22;;;;;;;2.53;2.33;;;12.30;99.90;;;;;;5069987;28;20375;-75
2022/09/26 01:11:48;;;;;;;2.40;2.20;;;12.30;99.90;;;;;;5069963;28;20418;-75
2022/09/26 01:14:14;;;;;;;2.80;2.60;;;12.30;99.90;;;;;;5069709;28;20446;-75
2022/09/26 01:16:45;;;;;;;3.00;2.80;;;12.30;99.90;;;;;;5069778;28;20794;-75
2022/09/26 01:19:43;;;;;;;3.50;2.33;;;12.30;99.90;;;;;;5069544;28;20388;-75
2022/09/26 01:22:35;;;;;;;2.85;2.22;;;12.30;99.90;;;;;;5069502;28;20478;-75
2022/09/26 01:25:15;;;;;;;3.70;2.50;;;12.30;99.90;;;;;;5069904;28;20387;-75
2022/09/26 01:27:51;;;;;;;3.60;3.30;;;12.20;99.90;;;;;;5069863;28;20383;-75
2022/09/26 01:30:20;;;;;;;3.67;3.00;;;12.20;99.90;;;;;;5069671;28;20470;-75
2022/09/26 01:32:56;;;;;;;3.47;3.17;;;12.30;99.90;;;;;;5069427;28;20917;-75
2022/09/26 01:35:40;;;;;;;3.08;2.67;;;12.30;99.90;;;;;;5051323;28;20476;-75
2022/09/26 01:38:26;;;;;;;3.40;2.70;;;12.20;99.90;;;;;;5051583;28;20422;-76
2022/09/26 01:41:01;;;;;;;2.88;2.67;;;12.20;99.90;;;;;;5069644;28;20384;-75
2022/09/26 01:43:49;;;;;;;2.60;2.40;;;12.30;99.90;;;;;;5069193;28;20392;-75
2022/09/26 01:46:34;;;;;;;2.70;2.50;;;12.20;99.90;;;;;;5049432;28;20399;-75
2022/09/26 01:49:26;;;;;;;2.87;2.67;;;12.30;99.90;;;;;;5069093;28;20399;-76
2022/09/26 01:51:58;;;;;;;3.90;3.40;;;12.20;99.90;;;;;;5069408;28;20403;-75
2022/09/26 01:54:37;;;;;;;3.07;2.77;;;12.20;99.90;;;;;;5069196;28;20458;-76
2022/09/26 01:57:09;;;;;;;6.07;2.90;;;12.10;99.90;;;;;;5069430;28;20406;-75
2022/09/26 01:59:45;;;;;;;3.45;2.90;;;12.20;99.90;;;;;;5051401;28;20375;-75
2022/09/26 02:02:26;;;;;;;3.50;2.70;;;12.30;99.90;;;;;;5068942;28;20481;-75
2022/09/26 02:04:57;;;;;;;2.90;2.47;;;12.30;99.90;;;;;;5069422;28;20384;-75
2022/09/26 02:07:39;;;;;;;3.05;2.63;;;12.20;99.90;;;;;;5069121;28;20502;-75
2022/09/26 02:10:17;;;;;;;2.72;2.53;;;12.20;99.90;;;;;;5069233;28;20972;-75
2022/09/26 02:12:46;;;;;;;3.45;2.55;;;12.20;99.90;;;;;;5069153;28;20376;-75
2022/09/26 02:15:16;;;;;;;2.50;2.30;;;12.30;99.90;;;;;;5069196;28;20459;-75
2022/09/26 02:17:47;;;;;;;2.33;2.13;;;12.30;99.90;;;;;;5068881;28;20372;-75
2022/09/26 02:20:27;;;;;;;2.70;2.50;;;12.10;99.90;;;;;;5092306;22;20535;-71
2022/09/26 02:22:54;;;;;;;3.80;2.30;;;12.10;99.90;;;;;;5088542;28;20398;-71
2022/09/26 02:25:19;;;;;;;3.38;2.40;;;12.10;99.90;;;;;;5089467;28;20378;-71
2022/09/26 02:27:45;;;;;;;2.50;2.30;;;12.20;99.90;;;;;;5092992;28;20419;-71
2022/09/26 02:30:11;;;;;;;2.87;2.60;;;12.20;99.90;;;;;;5093200;28;20493;-71
2022/09/26 02:32:38;;;;;;;2.60;2.33;;;12.20;99.90;;;;;;5083584;28;20407;-71
2022/09/26 02:37:49;;;;;;;2.70;2.50;;;12.30;99.90;;;;;;5106227;28;20744;-71
2022/09/26 02:40:14;;;;;;;2.90;2.70;;;12.30;99.90;;;;;;5076067;28;20403;-71
2022/09/26 02:43:06;;;;;;;2.60;2.40;;;12.30;99.90;;;;;;5084273;28;20437;-71
2022/09/26 02:46:15;;;;;;;4.10;2.70;;;12.20;99.90;;;;;;5089546;28;20370;-71
2022/09/26 02:48:46;;;;;;;2.95;2.75;;;12.30;99.90;;;;;;5076573;28;20737;-71
2022/09/26 02:51:32;;;;;;;3.15;2.85;;;12.20;99.90;;;;;;5074894;28;20398;-71
2022/09/26 02:54:06;;;;;;;3.00;2.55;;;12.20;99.90;;;;;;5092938;28;20895;-71
2022/09/26 02:56:49;;;;;;;2.33;2.10;;;12.20;99.90;;;;;;5092330;28;20393;-71
2022/09/26 02:59:49;;;;;;;2.30;2.10;;;12.10;99.90;;;;;;5072477;28;20371;-71
2022/09/26 03:02:19;;;;;;;2.30;2.10;;;12.10;99.90;;;;;;5045348;28;20399;-71
2022/09/26 03:04:49;;;;;;;2.42;2.22;;;12.10;99.90;;;;;;5072381;28;20759;-71
2022/09/26 03:07:33;;;;;;;2.55;2.35;;;12.10;99.90;;;;;;5072602;28;20926;-71
2022/09/26 03:10:02;;;;;;;2.85;2.40;;;12.20;99.90;;;;;;5054453;28;20408;-71
2022/09/26 03:12:30;;;;;;;3.38;2.28;;;12.20;99.90;;;;;;5076437;28;20835;-71
2022/09/26 03:14:57;;;;;;;3.33;2.50;;;12.20;99.90;;;;;;5091850;28;20378;-71
2022/09/26 03:17:25;;;;;;;2.80;2.60;;;12.10;99.90;;;;;;5092582;28;20876;-71
2022/09/26 03:20:04;;;;;;;3.58;2.40;;;12.20;99.90;;;;;;5092191;28;20424;-70
2022/09/26 03:22:30;;;;;;;3.40;2.17;;;12.10;99.90;;;;;;5088526;28;20386;-72
2022/09/26 03:24:58;;;;;;;3.53;2.38;;;12.10;99.90;;;;;;5080452;28;20390;-70
2022/09/26 03:27:24;;;;;;;2.78;2.30;;;12.10;99.90;;;;;;5092274;28;20407;-70
2022/09/26 03:29:50;;;;;;;3.00;2.70;;;12.20;99.90;;;;;;5091986;28;20397;-70
2022/09/26 03:32:15;;;;;;;4.83;2.57;;;12.10;99.90;;;;;;5081869;28;20390;-71
2022/09/26 03:34:41;;;;;;;2.77;2.57;;;12.10;99.90;;;;;;5090467;28;20397;-71
2022/09/26 03:37:07;;;;;;;3.00;2.70;;;12.10;99.90;;;;;;5092486;28;20395;-71
2022/09/26 03:39:33;;;;;;;3.47;2.70;;;12.00;99.90;;;;;;5098885;28;21134;-71
2022/09/26 03:41:58;;;;;;;3.20;2.80;;;12.00;99.90;;;;;;5108699;28;20467;-72
2022/09/26 03:44:24;;;;;;;3.07;2.77;;;12.00;99.90;;;;;;5104234;28;20474;-71
2022/09/26 03:46:50;;;;;;;4.38;3.10;;;11.90;99.90;;;;;;5104604;28;20442;-71
2022/09/26 03:49:16;;;;;;;4.47;3.50;;;12.00;99.90;;;;;;5091323;28;20399;-72
2022/09/26 03:51:43;;;;;;;5.53;3.73;;;11.80;99.90;;;;;;5098815;28;20409;-71
2022/09/26 03:54:13;;;;;;;5.40;4.30;;;11.80;99.90;;;;;;5086429;28;20392;-71
2022/09/26 03:56:39;;;;;;;5.07;4.43;;;11.80;99.90;;;;;;5088306;28;20395;-71
2022/09/26 03:59:05;;;;;;;4.50;4.10;;;11.70;99.90;;;;;;5089190;28;20436;-71
2022/09/26 04:01:30;;;;;;;4.70;3.70;;;11.80;99.90;;;;;;5082301;28;20432;-71
2022/09/26 04:03:56;;;;;;;4.60;4.10;;;11.80;99.90;;;;;;5085269;28;20399;-72
2022/09/26 04:06:22;;;;;;;4.20;3.80;;;11.90;99.90;;;;;;5097795;28;20441;-73
2022/09/26 04:08:50;;;;;;;3.92;3.40;;;11.80;99.90;;;;;;5092643;28;20396;-75
2022/09/26 04:11:21;;;;;;;4.25;2.60;;;11.80;99.90;;;;;;5100103;28;20416;-75
2022/09/26 04:13:48;;;;;;;2.60;2.30;;;11.50;99.90;;;;;;5096254;28;20787;-74
2022/09/26 04:16:13;;;;;;;3.00;2.70;;;11.40;99.90;;;;;;5096837;28;20413;-74
2022/09/26 04:18:39;;;;;;;3.03;2.60;;;11.30;99.90;;;;;;5084292;28;20887;-74
2022/09/26 04:21:11;;;;;;;2.93;2.73;;;11.20;99.90;;;;;;5085233;28;20423;-75
2022/09/26 04:23:39;;;;;;;3.75;2.70;;;11.20;99.90;;;;;;5083666;28;20498;-74
2022/09/26 04:26:10;;;;;;;4.20;3.00;;;11.20;99.90;;;;;;5095783;28;20450;-75
2022/09/26 04:28:37;;;;;;;3.30;3.00;;;11.10;99.90;;;;;;5088808;28;20432;-73
2022/09/26 04:31:05;;;;;;;2.88;2.60;;;11.10;99.90;;;;;;5097990;28;20402;-73
2022/09/26 04:33:32;;;;;;;2.90;2.70;;;11.10;99.90;;;;;;5052885;28;20375;-75
2022/09/26 04:36:00;;;;;;;3.33;3.03;;;11.10;99.90;;;;;;5072579;28;20390;-74
2022/09/26 04:38:31;;;;;;;3.03;2.55;;;11.20;99.90;;;;;;5074087;28;20444;-73
2022/09/26 04:40:57;;;;;;;3.35;3.05;;;11.20;99.90;;;;;;5077370;28;20410;-74
2022/09/26 04:43:23;;;;;;;3.53;3.15;;;11.10;99.90;;;;;;5092456;28;20415;-74
2022/09/26 04:45:48;;;;;;;3.80;3.00;;;11.10;99.90;;;;;;5099518;28;20382;-73
2022/09/26 04:48:14;;;;;;;3.95;3.20;;;11.00;99.90;;;;;;5109225;28;20486;-73
2022/09/26 04:50:39;;;;;;;3.78;3.40;;;11.00;99.90;;;;;;5081319;28;20400;-73
2022/09/26 04:53:05;;;;;;;3.70;3.30;;;11.10;99.90;;;;;;5080489;28;20401;-74
2022/09/26 04:55:32;;;;;;;3.80;3.50;;;11.20;99.90;;;;;;5077637;28;20893;-74
2022/09/26 04:57:57;;;;;;;3.60;2.70;;;11.10;99.90;;;;;;5089040;28;20879;-74
2022/09/26 05:00:23;;;;;;;3.40;2.80;;;11.10;99.90;;;;;;5086849;28;20405;-74
2022/09/26 05:02:48;;;;;;;3.90;3.00;;;11.00;99.90;;;;;;5099845;28;20973;-74
2022/09/26 05:05:14;;;;;;;6.68;5.60;;;10.90;99.90;;;;;;5077332;28;20432;-73
2022/09/26 05:07:41;;;;;;;3.90;3.60;;;11.00;99.90;;;;;;5085480;28;20404;-73
2022/09/26 05:10:09;;;;;;;3.60;3.30;;;11.00;99.90;;;;;;5090599;28;20829;-73
2022/09/26 05:12:37;;;;;;;3.53;3.22;;;11.00;99.90;;;;;;5097855;28;20484;-73
2022/09/26 05:15:05;;;;;;;3.60;3.30;;;11.00;99.90;;;;;;5085677;28;20388;-73
2022/09/26 05:17:31;;;;;;;3.60;2.80;;;11.10;99.90;;;;;;5071009;28;20478;-73
2022/09/26 05:19:57;;;;;;;3.20;2.90;;;11.00;99.90;;;;;;5070240;28;20735;-73
2022/09/26 05:22:22;;;;;;;3.30;3.00;;;11.10;99.90;;;;;;5073120;28;20397;-73
2022/09/26 05:27:32;;;;;;;4.85;3.60;;;11.00;99.90;;;;;;5086959;28;20454;-73
2022/09/26 05:29:57;;;;;;;3.28;2.70;;;11.00;99.90;;;;;;5093258;28;20394;-72
2022/09/26 05:32:23;;;;;;;3.10;2.80;;;10.90;99.90;;;;;;5082160;28;20398;-74
2022/09/26 05:34:49;;;;;;;4.60;2.97;;;10.80;99.90;;;;;;5094372;28;20717;-73
2022/09/26 05:37:15;;;;;;;3.53;3.10;;;10.80;99.90;;;;;;5108645;28;20372;-73
2022/09/26 05:42:24;;;;;;;4.40;2.60;;;10.70;99.90;;;;;;5100120;28;20430;-75
2022/09/26 05:44:52;;;;;;;3.20;2.70;;;10.60;99.90;;;;;;5081021;28;20460;-75
2022/09/26 05:47:17;;;;;;;3.50;3.20;;;10.60;99.90;;;;;;5070218;28;20479;-74
2022/09/26 05:49:43;;;;;;;3.40;3.10;;;10.60;99.90;;;;;;5072170;28;20530;-74
2022/09/26 05:52:08;;;;;;;5.00;3.08;;;10.70;99.90;;;;;;5067984;28;20789;-74
2022/09/26 05:54:34;;;;;;;3.30;3.07;;;10.60;99.90;;;;;;5083221;28;20386;-73
2022/09/26 05:56:59;;;;;;;3.53;3.23;;;10.50;99.90;;;;;;5101932;28;20393;-73
2022/09/26 05:59:25;;;;;;;4.53;3.60;;;10.50;99.90;;;;;;5081309;28;20525;-72
2022/09/26 06:01:51;;;;;;;7.07;3.60;;;10.50;99.90;;;;;;5092965;28;20420;-73
2022/09/26 06:04:16;;;;;;;4.33;3.17;;;10.50;99.90;;;;;;5055465;28;20461;-72
2022/09/26 06:06:43;;;;;;;5.13;3.25;;;10.50;99.90;;;;;;5079141;28;20440;-73
2022/09/26 06:09:08;;;;;;;3.40;3.10;;;10.50;99.90;;;;;;5072893;28;20443;-72
2022/09/26 06:11:34;;;;;;;3.63;3.33;;;10.70;99.90;;;;;;5092746;28;20438;-72
2022/09/26 06:13:59;;;;;;;3.33;2.90;;;10.70;99.90;;;;;;5098318;28;20401;-73
2022/09/26 06:16:25;;;;;;;4.20;2.75;;;10.70;99.90;;;;;;5085074;28;20412;-73
2022/09/26 06:18:51;;;;;;;2.92;2.72;;;10.80;99.90;;;;;;5084044;28;20386;-73
2022/09/26 06:21:18;;;;;;;4.25;3.08;;;10.80;99.90;;;;;;5099370;28;20455;-73
2022/09/26 06:23:44;;;;;;;4.70;3.30;;;10.80;99.90;;;;;;5077391;28;20388;-73
2022/09/26 06:26:31;;;;;;;3.70;3.40;;;10.90;99.90;;;;;;5091267;28;20398;-73
2022/09/26 06:28:59;;;;;;;3.20;2.92;;;10.80;99.90;;;;;;5084509;28;20541;-72
2022/09/26 06:31:25;;;;;;;3.90;3.20;;;10.90;99.90;;;;;;5081434;28;20428;-72
2022/09/26 06:33:53;;;;;;;3.97;3.30;;;10.80;99.90;;;;;;5073240;28;20411;-74
2022/09/26 06:36:19;;;;;;;3.50;3.20;;;10.90;99.90;;;;;;5084035;28;20403;-73
2022/09/26 06:38:44;;;;;;;3.97;3.40;;;11.10;99.90;;;;;;5086275;28;20453;-73
2022/09/26 06:41:10;;;;;;;4.23;3.83;;;11.10;99.90;;;;;;5082477;28;20495;-74
2022/09/26 06:43:35;;;;;;;3.80;3.50;;;11.20;99.90;;;;;;5080527;28;20405;-74
2022/09/26 06:46:01;;;;;;;3.78;3.20;;;11.10;99.90;;;;;;5081477;28;20404;-73
2022/09/26 06:48:26;;;;;;;3.73;3.43;;;11.20;99.90;;;;;;5091100;28;20413;-73
2022/09/26 06:50:54;;;;;;;3.30;3.00;;;11.30;99.90;;;;;;5078972;28;20418;-73
2022/09/26 06:53:21;;;;;;;3.40;3.10;;;11.20;99.90;;;;;;5082002;28;20407;-74
2022/09/26 06:55:47;;;;;;;3.00;2.80;;;11.10;99.90;;;;;;5086533;28;20394;-73
2022/09/26 06:58:12;;;;;;;3.50;3.20;;;11.20;99.90;;;;;;5084807;28;20422;-73
2022/09/26 07:00:39;;;;;;;2.87;2.67;;;11.20;99.90;;;;;;5077578;28;20402;-74
2022/09/26 07:03:05;;;;;;;3.50;3.20;;;11.20;99.90;;;;;;5077714;28;20417;-74
2022/09/26 07:05:30;;;;;;;3.05;2.78;;;11.30;99.90;;;;;;5080789;28;20401;-74
2022/09/26 07:07:57;;;;;;;2.90;2.50;;;11.40;99.90;;;;;;5092891;28;20745;-73
2022/09/26 07:10:23;;;;;;;2.70;2.50;;;11.20;99.90;;;;;;5085576;28;20403;-74
2022/09/26 07:12:49;;;;;;;2.97;2.78;;;11.30;99.90;;;;;;5088319;28;20405;-74
2022/09/26 07:15:18;;;;;;;3.50;2.67;;;11.30;99.90;;;;;;5089751;28;20463;-74
2022/09/26 07:17:46;;;;;;;3.28;2.63;;;11.20;99.90;;;;;;5074095;28;20390;-73
2022/09/26 07:20:15;;;;;;;3.20;2.70;;;11.40;99.90;;;;;;5092457;28;20398;-73
2022/09/26 07:22:42;;;;;;;4.07;2.83;;;11.40;99.90;;;;;;5086799;28;20479;-73
2022/09/26 07:25:09;;;;;;;4.25;2.80;;;11.50;99.90;;;;;;5069847;28;20879;-73
2022/09/26 07:27:35;;;;;;;2.80;2.60;;;11.60;99.90;;;;;;5096367;28;20388;-74
2022/09/26 07:30:01;;;;;;;3.50;2.50;;;11.70;99.90;;;;;;5094182;28;20846;-73
2022/09/26 07:32:29;;;;;;;8.63;5.63;;;11.80;99.90;;;;;;5093913;28;20408;-74
2022/09/26 07:34:54;;;;;;;4.30;3.28;;;11.90;99.90;;;;;;5102315;28;20390;-73
2022/09/26 07:37:21;;;;;;;3.20;2.70;;;11.90;99.90;;;;;;5090303;28;20404;-73
2022/09/26 07:39:46;;;;;;;2.60;2.40;;;11.90;99.90;;;;;;5088208;28;20479;-73
2022/09/26 07:42:13;;;;;;;2.80;2.60;;;12.10;99.90;;;;;;5059923;28;20481;-73
2022/09/26 07:44:39;;;;;;;3.20;2.90;;;12.10;99.90;;;;;;5090175;28;20386;-73
2022/09/26 07:52:33;;;;;;;2.80;2.60;;;12.20;99.90;;;;;;5071715;28;20393;-75
2022/09/26 07:54:58;;;;;;;3.20;2.90;;;12.00;99.90;;;;;;5080030;28;20383;-72
2022/09/26 07:57:24;;;;;;;2.90;2.70;;;12.00;99.90;;;;;;5083045;28;20394;-73
2022/09/26 07:59:50;;;;;;;3.90;3.50;;;12.00;99.90;;;;;;5087313;28;20401;-76
2022/09/26 08:02:25;;;;;;;4.63;2.85;;;11.90;99.90;;;;;;5082713;28;20396;-73
2022/09/26 08:04:53;;;;;;;2.63;2.42;;;11.90;99.90;;;;;;5073352;28;20751;-73
2022/09/26 08:07:19;;;;;;;2.80;2.60;;;11.90;99.90;;;;;;5093254;28;20883;-73
2022/09/26 08:09:44;;;;;;;3.28;2.70;;;12.00;99.90;;;;;;5081804;28;20422;-73
2022/09/26 08:12:10;;;;;;;4.13;3.10;;;11.90;99.90;;;;;;5083487;28;20489;-74
2022/09/26 08:14:36;;;;;;;2.83;2.63;;;12.00;99.90;;;;;;5086308;28;20848;-73
2022/09/26 08:17:02;;;;;;;3.90;3.50;;;12.10;99.90;;;;;;5091488;28;20378;-73
2022/09/26 08:19:28;;;;;;;4.43;3.70;;;12.20;99.90;;;;;;5090984;28;20492;-73
2022/09/26 08:21:54;;;;;;;4.13;3.72;;;12.30;99.90;;;;;;5126825;22;20436;-74
2022/09/26 08:24:19;;;;;;;5.85;3.97;;;12.50;99.90;;;;;;5110680;28;20387;-74
2022/09/26 08:26:45;;;;;;;5.93;4.30;;;12.50;99.90;;;;;;5111010;28;20396;-73
2022/09/26 08:29:11;;;;;;;5.57;4.20;;;12.50;99.90;;;;;;5111396;28;20726;-74
2022/09/26 08:31:39;;;;;;;5.68;4.22;;;12.40;99.90;;;;;;5125221;27;20399;-74
2022/09/26 08:34:06;;;;;;;6.43;4.20;;;12.40;99.90;;;;;;5131874;27;20386;-74
2022/09/26 08:36:34;;;;;;;5.50;4.30;;;12.60;99.90;;;;;;5132404;27;20405;-75
2022/09/26 08:39:01;;;;;;;5.68;3.85;;;12.60;99.90;;;;;;5131081;27;20425;-75
2022/09/26 08:41:48;;;;;;;6.72;3.88;;;12.90;99.90;;;;;;5132182;27;20868;-75
2022/09/26 08:44:35;;;;;;;4.10;3.70;;;13.00;99.90;;;;;;5132129;27;20406;-75
2022/09/26 08:47:06;;;;;;;4.30;3.60;;;12.90;99.90;;;;;;5131576;27;20479;-76
2022/09/26 08:49:41;;;;;;;3.72;3.42;;;13.10;99.90;;;;;;5132233;27;20382;-76
2022/09/26 08:52:28;;;;;;;4.40;4.00;;;13.10;99.90;;;;;;5130705;27;20879;-75
2022/09/26 08:55:01;;;;;;;3.60;3.30;;;13.10;99.90;;;;;;5131297;27;20940;-75
2022/09/26 08:57:47;;;;;;;4.15;3.75;;;13.20;99.90;;;;;;5129810;27;20729;-75
2022/09/26 09:00:23;;;;;;;3.20;2.90;;;13.40;99.90;;;;;;5131879;27;20382;-75
2022/09/26 09:02:51;;;;;;;3.50;2.90;;;13.70;99.90;;;;;;5130341;27;20798;-75
2022/09/26 09:05:27;;;;;;;2.90;2.60;;;13.80;99.90;;;;;;5131786;27;20392;-74
2022/09/26 09:07:57;;;;;;;3.97;2.70;;;13.90;99.90;;;;;;5131754;27;20465;-74
2022/09/26 09:10:50;;;;;;;4.10;2.20;;;14.00;99.90;;;;;;5130944;27;20536;-74
2022/09/26 09:13:37;;;;;;;4.25;2.50;;;14.40;99.90;;;;;;5130169;27;20764;-75
2022/09/26 09:16:30;;;;;;;3.30;1.90;;;14.20;99.90;;;;;;5131808;27;20386;-75
2022/09/26 09:19:20;;;;;;;4.10;2.40;;;14.10;99.90;;;;;;5131460;27;20375;-74
2022/09/26 09:22:25;;;;;;;2.95;2.42;;;14.30;99.90;;;;;;5131398;27;20421;-75
2022/09/26 09:24:53;;;;;;;3.90;2.47;;;14.10;99.90;;;;;;5110760;28;20380;-74
2022/09/26 09:27:37;;;;;;;3.13;2.10;;;13.90;99.90;;;;;;5125235;27;20393;-73
2022/09/26 09:30:09;;;;;;;2.70;2.37;;;14.20;99.90;;;;;;5131293;27;20374;-73
2022/09/26 09:32:54;;;;;;;2.40;2.20;;;14.40;99.90;;;;;;5130948;27;20386;-74
2022/09/26 09:35:31;;;;;;;3.10;2.40;;;14.40;99.90;;;;;;5131354;27;20370;-74
2022/09/26 09:37:57;;;;;;;2.60;2.40;;;14.40;99.90;;;;;;5131322;27;20381;-74
2022/09/26 09:40:36;;;;;;;4.10;2.40;;;14.40;99.90;;;;;;5131310;27;20382;-74
2022/09/26 09:43:06;;;;;;;3.67;2.45;;;14.60;99.90;;;;;;5110495;28;20381;-74
2022/09/26 09:45:50;;;;;;;3.60;2.50;;;14.70;99.90;;;;;;5110762;28;20392;-75
2022/09/26 09:48:16;;;;;;;4.47;2.60;;;14.60;99.90;;;;;;5110626;28;20372;-74
2022/09/26 09:51:16;;;;;;;2.80;2.50;;;14.80;99.90;;;;;;5110504;28;20421;-74
2022/09/26 09:54:27;;;;;;;3.95;2.97;;;14.90;99.90;;;;;;5110412;28;20854;-73
2022/09/26 09:57:07;;;;;;;3.25;2.95;;;14.90;99.90;;;;;;5119157;27;20402;-75
2022/09/26 10:00:01;;;;;;;3.53;3.22;;;14.80;99.90;;;;;;5114345;28;20376;-73
2022/09/26 10:02:30;;;;;;;3.17;2.88;;;14.70;99.90;;;;;;5114629;28;20379;-74
2022/09/26 10:05:22;;;;;;;3.90;2.97;;;14.60;99.90;;;;;;5114782;28;20820;-74
2022/09/26 10:07:48;;;;;;;3.77;2.97;;;14.50;99.90;;;;;;5114693;28;20762;-73
2022/09/26 10:10:23;;;;;;;3.53;2.30;;;14.50;99.90;;;;;;5116978;27;20487;-74
2022/09/26 10:12:50;;;;;;;3.00;2.60;;;14.60;99.90;;;;;;5133742;27;20383;-74
2022/09/26 10:15:26;;;;;;;3.00;2.38;;;14.60;99.90;;;;;;5134975;27;20465;-74
2022/09/26 10:18:06;;;;;;;4.07;3.00;;;14.60;99.90;;;;;;5135059;27;20433;-74
2022/09/26 10:20:41;;;;;;;3.00;2.30;;;14.40;99.90;;;;;;5134844;27;20386;-74
2022/09/26 10:23:20;;;;;;;3.42;2.40;;;14.40;99.90;;;;;;5133048;27;20382;-74
2022/09/26 10:25:47;;;;;;;3.40;2.10;;;14.40;99.90;;;;;;5130374;27;20481;-72
2022/09/26 10:28:34;;;;;;;3.17;2.55;;;14.60;99.90;;;;;;5132820;27;20390;-72
2022/09/26 10:31:08;;;;;;;3.00;2.20;;;14.70;99.90;;;;;;5127074;27;20441;-73
2022/09/26 10:33:36;;;;;;;3.40;2.27;;;14.70;99.90;;;;;;5127221;27;20397;-73
2022/09/26 10:36:19;;;;;;;3.17;2.50;;;14.80;99.90;;;;;;5129590;27;20382;-73
2022/09/26 10:41:44;;;;;;;2.78;2.58;;;14.70;99.90;;;;;;5131011;27;20429;-74
2022/09/26 10:44:22;;;;;;;2.45;2.25;;;14.70;99.90;;;;;;5131684;27;20905;-74
2022/09/26 10:46:50;;;;;;;3.50;2.20;;;14.80;99.90;;;;;;5126066;27;20485;-73
2022/09/26 10:49:17;;;;;;;2.70;2.40;;;14.80;99.90;;;;;;5125432;27;20447;-73
2022/09/26 10:51:53;;;;;;;3.70;2.10;;;14.80;99.90;;;;;;5125903;27;20436;-73
2022/09/26 10:54:22;;;;;;;2.60;2.20;;;14.80;99.90;;;;;;5127350;27;20812;-73
2022/09/26 10:56:58;;;;;;;3.00;2.00;;;14.70;99.90;;;;;;5129214;27;20410;-73
2022/09/26 10:59:30;;;;;;;1.80;1.52;;;14.70;99.90;;;;;;5129488;27;20498;-73
2022/09/26 11:01:58;;;;;;;2.10;1.90;;;14.70;99.90;;;;;;5126280;27;20957;-73
2022/09/26 11:07:23;;;;;;;2.40;2.05;;;14.80;99.90;;;;;;5129544;27;20406;-73
2022/09/26 11:09:51;;;;;;;3.47;2.30;;;14.60;99.90;;;;;;5126005;27;20394;-74
2022/09/26 11:12:38;;;;;;;2.30;2.05;;;14.60;99.90;;;;;;5127690;27;20406;-73
2022/09/26 11:15:08;;;;;;;2.47;2.25;;;14.50;99.90;;;;;;5131296;27;20886;-74
2022/09/26 11:17:47;;;;;;;2.97;2.38;;;14.50;99.90;;;;;;5128422;27;20804;-72
2022/09/26 11:20:28;;;;;;;4.55;2.80;;;14.50;99.90;;;;;;5133067;27;20382;-71
2022/09/26 11:23:06;;;;;;;2.80;2.10;;;14.50;99.90;;;;;;5128817;27;20417;-74
2022/09/26 11:25:45;;;;;;;4.70;2.47;;;14.40;99.90;;;;;;5130164;27;20391;-74
2022/09/26 11:28:18;;;;;;;3.40;2.30;;;14.40;99.90;;;;;;5126004;27;20381;-73
2022/09/26 11:30:48;;;;;;;3.38;2.40;;;14.40;99.90;;;;;;5125861;27;20406;-72
2022/09/26 11:33:17;;;;;;;2.90;2.08;;;14.40;99.90;;;;;;5132723;27;20387;-72
2022/09/26 11:36:09;;;;;;;1.80;1.70;;;14.40;99.90;;;;;;5127206;27;20398;-72
2022/09/26 11:39:03;;;;;;;5.90;2.80;;;14.40;99.90;;;;;;5128034;27;20420;-73
2022/09/26 11:41:52;;;;;;;2.37;2.17;;;14.30;99.90;;;;;;5126339;27;20885;-74
2022/09/26 11:44:43;;;;;;;3.83;2.58;;;14.40;99.90;;;;;;5125272;27;20395;-74
2022/09/26 11:47:48;;;;;;;4.45;2.53;;;14.40;99.90;;;;;;5128828;27;20426;-72
2022/09/26 11:50:44;;;;;;;3.85;2.25;;;14.30;99.90;;;;;;5122401;27;20638;-72
2022/09/26 11:53:29;;;;;;;2.80;2.40;;;14.30;99.90;;;;;;5123557;27;20399;-74
2022/09/26 11:56:16;;;;;;;4.20;2.78;;;14.30;99.90;;;;;;5126069;27;20402;-73
2022/09/26 11:58:46;;;;;;;3.70;2.35;;;14.30;99.90;;;;;;5119693;27;20390;-73
2022/09/26 12:01:26;;;;;;;2.97;2.67;;;14.40;99.90;;;;;;5124861;27;20896;-74
2022/09/26 12:04:26;;;;;;;2.50;2.30;;;14.40;99.90;;;;;;5128681;27;20490;-74
2022/09/26 12:07:02;;;;;;;3.75;2.22;;;14.60;99.90;;;;;;5128221;27;20405;-74
2022/09/26 12:10:01;;;;;;;2.80;2.10;;;14.60;99.90;;;;;;5124012;27;20381;-73
2022/09/26 12:12:50;;;;;;;2.80;1.90;;;14.60;99.90;;;;;;5127855;27;20446;-74
2022/09/26 12:15:42;;;;;;;3.90;2.60;;;14.60;99.90;;;;;;5124454;27;20416;-73
2022/09/26 12:18:14;;;;;;;3.60;2.20;;;14.70;99.90;;;;;;5126079;27;20406;-73
2022/09/26 12:21:11;;;;;;;2.47;2.00;;;14.70;99.90;;;;;;5122798;27;20375;-73
2022/09/26 12:23:56;;;;;;;2.60;2.00;;;14.80;99.90;;;;;;5130466;27;20399;-74
2022/09/26 12:26:50;;;;;;;3.10;2.10;;;14.80;99.90;;;;;;5127590;27;20402;-74
2022/09/26 12:29:32;;;;;;;2.40;1.98;;;14.90;99.90;;;;;;5118317;27;20448;-75
2022/09/26 12:32:21;;;;;;;3.17;2.00;;;15.00;99.90;;;;;;5122040;27;20409;-77
2022/09/26 12:35:17;;;;;;;2.33;1.80;;;15.00;99.90;;;;;;5088926;27;20380;-73
2022/09/26 12:38:07;;;;;;;4.97;2.10;;;15.20;99.90;;;;;;5127007;27;20406;-73
2022/09/26 12:40:42;;;;;;;55.22;39.15;;;15.50;99.90;;;;;;5124018;27;20443;-74
2022/09/26 12:43:24;;;;;;;6.10;4.97;;;15.40;99.90;;;;;;5132086;27;20425;-74
2022/09/26 12:46:02;;;;;;;38.65;29.45;;;15.30;99.90;;;;;;5131011;27;20806;-74
2022/09/26 12:48:52;;;;;;;2.38;2.00;;;15.20;99.90;;;;;;5132168;27;20802;-74
2022/09/26 12:51:36;;;;;;;2.95;2.22;;;15.20;99.90;;;;;;5121334;27;20403;-74
2022/09/26 12:54:18;;;;;;;2.20;2.00;;;15.00;99.90;;;;;;5124326;27;20394;-74
2022/09/26 12:57:05;;;;;;;2.92;2.10;;;14.80;99.90;;;;;;5123996;27;20398;-74
2022/09/26 12:59:57;;;;;;;3.40;2.40;;;14.60;99.90;;;;;;5128923;27;20387;-73
2022/09/26 13:02:37;;;;;;;2.83;2.40;;;14.10;99.90;;;;;;5123200;27;20860;-76
2022/09/26 13:05:21;;;;;;;2.85;1.63;;;12.80;99.90;;;;;;5132010;27;20778;-76
2022/09/26 13:08:01;;;;;;;3.95;2.70;;;12.00;99.90;;;;;;5132251;27;20386;-76
2022/09/26 13:10:37;;;;;;;5.50;2.00;;;11.70;99.90;;;;;;5131978;27;20481;-76
2022/09/26 13:13:07;;;;;;;2.50;2.30;;;11.90;99.90;;;;;;5131386;27;20386;-75
2022/09/26 13:15:56;;;;;;;2.40;2.20;;;12.20;99.90;;;;;;5130487;27;20410;-76
2022/09/26 13:18:28;;;;;;;4.13;2.35;;;12.40;99.90;;;;;;5130494;27;20386;-75
2022/09/26 13:21:02;;;;;;;3.43;2.33;;;12.30;99.90;;;;;;5131751;27;20403;-76
2022/09/26 13:23:36;;;;;;;3.00;2.70;;;12.40;99.90;;;;;;5131280;27;20427;-75
2022/09/26 13:26:47;;;;;;;3.15;2.30;;;12.50;99.90;;;;;;5131507;27;20478;-76
2022/09/26 13:29:20;;;;;;;4.25;2.80;;;12.40;99.90;;;;;;5128441;27;20401;-75
2022/09/26 13:32:23;;;;;;;3.60;2.90;;;12.60;99.90;;;;;;5116591;27;20415;-75
2022/09/26 13:35:02;;;;;;;5.20;3.45;;;12.80;99.90;;;;;;5069354;27;20398;-74
2022/09/26 13:38:00;;;;;;;3.90;2.70;;;13.30;99.90;;;;;;5127383;27;20417;-76